Time;durP1;ratioP1;P1;durP2;ratioP2;P2;SDS_P1;SDS_P2;PMS_P1;PMS_P2;Temp;Humidity;BMP_temperature;BMP_pressure;BME280_temperature;BME280_humidity;BME280_pressure;Samples;Min_cycle;Max_cycle;Signal;HPM_P1;HPM_P2
2022/11/14 00:00:35;;;;;;;14.52;7.93;;;6.00;99.90;;;;;;4983668;28;20078;-74
2022/11/14 00:03:05;;;;;;;13.45;6.47;;;5.90;99.90;;;;;;4993366;28;20028;-74
2022/11/14 00:05:32;;;;;;;12.30;6.45;;;5.80;99.90;;;;;;4958740;28;20517;-74
2022/11/14 00:07:58;;;;;;;10.68;6.45;;;5.80;99.90;;;;;;4965771;28;20027;-73
2022/11/14 00:10:24;;;;;;;11.48;6.35;;;5.80;99.90;;;;;;4986753;28;20059;-74
2022/11/14 00:12:50;;;;;;;16.75;7.50;;;5.80;99.90;;;;;;4980369;28;20398;-73
2022/11/14 00:15:16;;;;;;;11.98;5.75;;;5.80;99.90;;;;;;4972651;28;20035;-73
2022/11/14 00:17:42;;;;;;;13.93;7.25;;;5.70;99.90;;;;;;4980501;28;20019;-73
2022/11/14 00:20:10;;;;;;;19.08;6.65;;;5.80;99.90;;;;;;4987964;28;20041;-73
2022/11/14 00:22:36;;;;;;;11.40;5.85;;;5.70;99.90;;;;;;4988297;28;20033;-73
2022/11/14 00:25:02;;;;;;;12.43;5.97;;;5.70;99.90;;;;;;4987663;28;20030;-73
2022/11/14 00:27:27;;;;;;;15.23;8.02;;;5.60;99.90;;;;;;4965160;28;20039;-73
2022/11/14 00:29:53;;;;;;;17.27;7.25;;;5.70;99.90;;;;;;4987689;28;20043;-73
2022/11/14 00:32:21;;;;;;;18.60;9.57;;;5.70;99.90;;;;;;4959039;28;20038;-73
2022/11/14 00:34:47;;;;;;;15.40;6.30;;;5.70;99.90;;;;;;4966958;28;20034;-73
2022/11/14 00:37:13;;;;;;;15.65;8.15;;;5.60;99.90;;;;;;4970500;28;20073;-73
2022/11/14 00:39:39;;;;;;;11.55;6.30;;;5.60;99.90;;;;;;4968496;28;20480;-73
2022/11/14 00:42:05;;;;;;;24.77;6.65;;;5.60;99.90;;;;;;4969497;28;20038;-73
2022/11/14 00:44:31;;;;;;;15.02;6.28;;;5.60;99.90;;;;;;4987145;28;20073;-73
2022/11/14 00:46:56;;;;;;;20.55;8.30;;;5.60;99.90;;;;;;4972769;28;20033;-73
2022/11/14 00:49:22;;;;;;;9.18;5.90;;;5.60;99.90;;;;;;4969391;28;20038;-73
2022/11/14 00:51:48;;;;;;;16.45;7.65;;;5.60;99.90;;;;;;4967136;28;20089;-73
2022/11/14 00:54:13;;;;;;;14.38;6.88;;;5.60;99.90;;;;;;4970227;28;20039;-73
2022/11/14 00:56:39;;;;;;;13.13;6.57;;;5.60;99.90;;;;;;4980482;28;20027;-72
2022/11/14 00:59:05;;;;;;;19.80;8.80;;;5.60;99.90;;;;;;4972211;28;20090;-73
2022/11/14 01:01:31;;;;;;;23.75;8.20;;;5.60;99.90;;;;;;4964680;28;20035;-74
2022/11/14 01:03:56;;;;;;;20.27;10.55;;;5.60;99.90;;;;;;4983417;28;20034;-73
2022/11/14 01:06:22;;;;;;;9.10;6.50;;;5.50;99.90;;;;;;4991837;28;20034;-73
2022/11/14 01:08:50;;;;;;;13.68;6.85;;;5.50;99.90;;;;;;4990861;28;20037;-72
2022/11/14 01:11:19;;;;;;;17.67;5.85;;;5.60;99.90;;;;;;4963313;28;20528;-73
2022/11/14 01:13:45;;;;;;;18.05;7.72;;;5.70;99.90;;;;;;4958783;28;20026;-73
2022/11/14 01:16:12;;;;;;;20.00;6.07;;;5.60;99.90;;;;;;4979158;28;20023;-73
2022/11/14 01:18:39;;;;;;;25.08;8.38;;;5.60;99.90;;;;;;4983005;28;20077;-73
2022/11/14 01:21:08;;;;;;;18.73;9.75;;;5.70;99.90;;;;;;4991984;28;20031;-73
2022/11/14 01:23:34;;;;;;;27.27;9.82;;;5.80;99.90;;;;;;4987878;28;20438;-72
2022/11/14 01:26:12;;;;;;;18.00;7.57;;;5.70;99.90;;;;;;4986359;28;20097;-73
2022/11/14 01:28:39;;;;;;;11.38;6.13;;;5.80;99.90;;;;;;4972016;28;20144;-73
2022/11/14 01:31:17;;;;;;;13.25;7.18;;;5.70;99.90;;;;;;4964060;28;20081;-73
2022/11/14 01:33:43;;;;;;;13.85;6.47;;;5.70;99.90;;;;;;4982474;28;20082;-73
2022/11/14 01:36:10;;;;;;;13.90;7.20;;;5.70;99.90;;;;;;4992447;28;20019;-73
2022/11/14 01:38:37;;;;;;;20.30;7.05;;;5.70;99.90;;;;;;4978660;28;20122;-73
2022/11/14 01:41:04;;;;;;;15.70;7.43;;;5.80;99.90;;;;;;4967686;28;20031;-73
2022/11/14 01:43:33;;;;;;;15.15;7.05;;;5.80;99.90;;;;;;4983536;28;20510;-73
2022/11/14 01:46:27;;;;;;;18.40;7.90;;;5.90;99.90;;;;;;4972085;28;20031;-74
2022/11/14 01:48:58;;;;;;;14.70;7.60;;;5.90;99.90;;;;;;4985462;28;20034;-73
2022/11/14 01:51:40;;;;;;;19.05;6.78;;;5.90;99.90;;;;;;4986414;28;20035;-73
2022/11/14 01:54:13;;;;;;;;;;;5.80;99.90;;;;;;4967678;28;20558;-73
2022/11/14 01:56:47;;;;;;;21.00;7.35;;;5.90;99.90;;;;;;4982949;28;19945;-73
2022/11/14 01:59:20;;;;;;;16.65;6.65;;;5.90;99.90;;;;;;4961342;28;20394;-73
2022/11/14 02:01:49;;;;;;;12.73;6.20;;;5.90;99.90;;;;;;4980364;28;20520;-73
2022/11/14 02:04:31;;;;;;;12.70;6.25;;;5.90;99.90;;;;;;4983782;28;20049;-73
2022/11/14 02:07:00;;;;;;;17.65;8.00;;;5.90;99.90;;;;;;4964216;28;20027;-74
2022/11/14 02:09:30;;;;;;;19.60;7.68;;;6.00;99.90;;;;;;4967372;28;20037;-73
2022/11/14 02:11:59;;;;;;;14.13;8.00;;;6.00;99.90;;;;;;4976959;28;20034;-73
2022/11/14 02:14:26;;;;;;;15.95;6.82;;;5.90;99.90;;;;;;4998781;28;20035;-73
2022/11/14 02:16:53;;;;;;;18.67;8.45;;;6.00;99.90;;;;;;4981191;28;20030;-74
2022/11/14 02:19:19;;;;;;;11.27;6.32;;;5.90;99.90;;;;;;4967255;28;20041;-73
2022/11/14 02:21:45;;;;;;;13.10;6.75;;;6.00;99.90;;;;;;4968089;28;20446;-73
2022/11/14 02:24:12;;;;;;;11.40;7.65;;;6.00;99.90;;;;;;4984545;28;20081;-73
2022/11/14 02:26:39;;;;;;;17.92;6.70;;;6.00;99.90;;;;;;4983216;28;20045;-73
2022/11/14 02:29:08;;;;;;;17.00;5.65;;;6.00;99.90;;;;;;4968183;28;20089;-73
2022/11/14 02:31:34;;;;;;;22.92;7.35;;;6.00;99.90;;;;;;4982598;28;20039;-74
2022/11/14 02:34:00;;;;;;;13.18;5.90;;;6.00;99.90;;;;;;4967155;28;20051;-74
2022/11/14 02:36:26;;;;;;;14.30;6.32;;;6.00;99.90;;;;;;5009172;23;20182;-70
2022/11/14 02:38:52;;;;;;;18.50;8.27;;;6.10;99.90;;;;;;5009724;28;20029;-70
2022/11/14 02:41:18;;;;;;;16.92;9.35;;;6.10;99.90;;;;;;5003675;28;20027;-70
2022/11/14 02:43:43;;;;;;;16.27;5.70;;;6.10;99.90;;;;;;5007038;28;20038;-70
2022/11/14 02:46:10;;;;;;;21.35;6.97;;;6.10;99.90;;;;;;5008713;28;20537;-69
2022/11/14 02:48:35;;;;;;;17.80;7.82;;;6.10;99.90;;;;;;5005110;28;20402;-70
2022/11/14 02:51:01;;;;;;;19.38;8.98;;;6.10;99.90;;;;;;5009153;28;20029;-70
2022/11/14 02:53:27;;;;;;;15.30;7.85;;;6.10;99.90;;;;;;5005388;28;20037;-69
2022/11/14 02:55:53;;;;;;;21.90;6.97;;;6.10;99.90;;;;;;5008882;28;20064;-70
2022/11/14 02:58:18;;;;;;;9.60;6.97;;;6.10;99.90;;;;;;5005628;28;20049;-70
2022/11/14 03:00:44;;;;;;;16.75;8.07;;;6.10;99.90;;;;;;5007673;28;20493;-70
2022/11/14 03:03:10;;;;;;;16.60;7.78;;;6.10;99.90;;;;;;5005226;28;20033;-70
2022/11/14 03:05:36;;;;;;;23.80;8.40;;;6.10;99.90;;;;;;5008324;28;20390;-70
2022/11/14 03:08:01;;;;;;;21.77;8.80;;;6.10;99.90;;;;;;5004017;28;20072;-69
2022/11/14 03:10:27;;;;;;;16.30;6.78;;;6.10;99.90;;;;;;5007622;28;20030;-69
2022/11/14 03:12:57;;;;;;;18.00;8.38;;;6.10;99.90;;;;;;5005304;28;20033;-69
2022/11/14 03:15:23;;;;;;;16.48;7.45;;;6.10;99.90;;;;;;5004061;28;20030;-69
2022/11/14 03:17:50;;;;;;;17.83;7.80;;;6.10;99.90;;;;;;5003833;28;20474;-69
2022/11/14 03:20:17;;;;;;;14.15;7.35;;;6.10;99.90;;;;;;5007042;28;20035;-70
2022/11/14 03:22:42;;;;;;;13.85;7.15;;;6.20;99.90;;;;;;5005240;28;20068;-69
2022/11/14 03:25:08;;;;;;;15.82;8.88;;;6.10;99.90;;;;;;5008209;28;20030;-70
2022/11/14 03:27:34;;;;;;;13.20;7.07;;;6.10;99.90;;;;;;5005044;28;20477;-70
2022/11/14 03:29:59;;;;;;;18.00;6.80;;;6.10;99.90;;;;;;5009202;28;20064;-69
2022/11/14 03:32:25;;;;;;;11.40;7.35;;;6.10;99.90;;;;;;5002487;28;20069;-69
2022/11/14 03:34:51;;;;;;;10.32;5.90;;;6.00;99.90;;;;;;5009737;28;20038;-69
2022/11/14 03:37:16;;;;;;;10.25;7.15;;;6.00;99.90;;;;;;5002669;28;20026;-69
2022/11/14 03:39:42;;;;;;;13.10;5.47;;;6.00;99.90;;;;;;5011639;28;20674;-69
2022/11/14 03:42:08;;;;;;;11.60;6.53;;;6.00;99.90;;;;;;4993867;28;20042;-69
2022/11/14 03:44:34;;;;;;;11.95;5.50;;;6.00;99.90;;;;;;5011595;28;20385;-69
2022/11/14 03:47:00;;;;;;;9.88;5.03;;;6.00;99.90;;;;;;5000006;28;20255;-69
2022/11/14 03:49:26;;;;;;;9.07;4.32;;;6.00;99.90;;;;;;5001761;28;20042;-69
2022/11/14 03:51:51;;;;;;;8.82;6.50;;;6.00;99.90;;;;;;5000938;28;20038;-70
2022/11/14 03:54:17;;;;;;;10.48;5.50;;;6.00;99.90;;;;;;5001857;28;20398;-69
2022/11/14 03:56:42;;;;;;;15.73;6.57;;;6.10;99.90;;;;;;5004694;28;20022;-69
2022/11/14 03:59:14;;;;;;;10.18;5.45;;;6.00;99.90;;;;;;5004469;28;20037;-69
2022/11/14 04:01:40;;;;;;;10.60;6.38;;;6.00;99.90;;;;;;5003321;28;20064;-69
2022/11/14 04:04:11;;;;;;;13.95;6.72;;;6.10;99.90;;;;;;5004440;28;20430;-69
2022/11/14 04:06:43;;;;;;;9.00;5.70;;;6.00;99.90;;;;;;4993570;28;20434;-69
2022/11/14 04:09:37;;;;;;;18.33;7.55;;;6.00;99.90;;;;;;4992517;28;20034;-71
2022/11/14 04:12:03;;;;;;;12.13;7.30;;;6.00;99.90;;;;;;5004375;28;20413;-69
2022/11/14 04:14:32;;;;;;;17.00;7.05;;;6.00;99.90;;;;;;5002455;28;20036;-69
2022/11/14 04:17:10;;;;;;;11.93;7.07;;;5.90;99.90;;;;;;5001058;28;20023;-69
2022/11/14 04:20:00;;;;;;;15.73;8.00;;;5.90;99.90;;;;;;4995567;28;20025;-69
2022/11/14 04:22:41;;;;;;;12.95;7.35;;;5.90;99.90;;;;;;5003008;28;20482;-69
2022/11/14 04:25:12;;;;;;;9.75;4.88;;;6.00;99.90;;;;;;4994804;28;20026;-70
2022/11/14 04:27:47;;;;;;;16.95;7.78;;;5.90;99.90;;;;;;4993211;28;20426;-70
2022/11/14 04:30:18;;;;;;;11.43;6.25;;;5.70;99.90;;;;;;4999805;28;20659;-70
2022/11/14 04:32:53;;;;;;;11.40;7.38;;;5.70;99.90;;;;;;4998078;28;20062;-69
2022/11/14 04:35:34;;;;;;;12.55;6.53;;;5.60;99.90;;;;;;4983717;28;20046;-70
2022/11/14 04:38:38;;;;;;;15.18;7.78;;;5.50;99.90;;;;;;4976630;28;20089;-70
2022/11/14 04:41:04;;;;;;;13.65;7.18;;;5.50;99.90;;;;;;4994859;28;20121;-70
2022/11/14 04:43:29;;;;;;;13.10;7.05;;;5.50;99.90;;;;;;4990373;28;20035;-70
2022/11/14 04:46:04;;;;;;;15.90;8.40;;;5.50;99.90;;;;;;4999991;28;20034;-70
2022/11/14 04:49:24;;;;;;;16.30;5.82;;;5.50;99.90;;;;;;5007385;28;20068;-70
2022/11/14 04:51:59;;;;;;;15.35;7.38;;;5.50;99.90;;;;;;4933441;29;20039;-70
2022/11/14 04:54:34;;;;;;;9.57;5.38;;;5.60;99.90;;;;;;4932818;29;20051;-70
2022/11/14 04:57:02;;;;;;;13.57;6.55;;;5.60;99.90;;;;;;4943112;29;20098;-70
2022/11/14 05:00:04;;;;;;;16.08;7.00;;;5.60;99.90;;;;;;4941944;29;20035;-69
2022/11/14 05:02:31;;;;;;;;;;;5.60;99.90;;;;;;4996419;28;20052;-70
2022/11/14 05:05:08;;;;;;;16.67;7.47;;;5.70;99.90;;;;;;5002406;28;19992;-70
2022/11/14 05:07:49;;;;;;;21.52;8.35;;;5.60;99.90;;;;;;4989665;28;20026;-70
2022/11/14 05:10:21;;;;;;;23.20;7.13;;;5.70;99.90;;;;;;4998936;28;20138;-70
2022/11/14 05:12:47;;;;;;;19.15;6.82;;;5.70;99.90;;;;;;5005178;28;20038;-70
2022/11/14 05:22:23;;;;;;;14.57;6.47;;;5.60;99.90;;;;;;4979970;28;20096;-70
2022/11/14 05:24:49;;;;;;;19.25;8.18;;;5.70;99.90;;;;;;4965340;28;20042;-70
2022/11/14 05:27:18;;;;;;;12.80;7.60;;;5.70;99.90;;;;;;4949905;28;20528;-71
2022/11/14 05:29:43;;;;;;;23.75;8.52;;;5.70;99.90;;;;;;4955130;28;20070;-72
2022/11/14 05:32:09;;;;;;;19.88;5.15;;;5.70;99.90;;;;;;4934046;29;20126;-71
2022/11/14 05:34:34;;;;;;;10.10;5.78;;;5.70;99.90;;;;;;4941080;29;20040;-71
2022/11/14 05:37:02;;;;;;;15.57;5.35;;;5.90;99.90;;;;;;4945156;29;20069;-71
2022/11/14 05:39:29;;;;;;;14.23;5.93;;;5.70;99.90;;;;;;4940978;28;20034;-70
2022/11/14 05:41:54;;;;;;;18.52;6.65;;;5.80;99.90;;;;;;4941283;28;20020;-70
2022/11/14 05:44:20;;;;;;;12.45;5.75;;;5.70;99.90;;;;;;4936320;29;20038;-70
2022/11/14 05:46:46;;;;;;;15.20;7.05;;;5.70;99.90;;;;;;4931099;29;20082;-70
2022/11/14 05:49:11;;;;;;;17.45;8.00;;;5.80;99.90;;;;;;4930775;28;20079;-70
2022/11/14 05:51:37;;;;;;;18.13;6.18;;;5.70;99.90;;;;;;4921667;29;20122;-70
2022/11/14 05:54:03;;;;;;;15.55;7.00;;;5.70;99.90;;;;;;4933218;29;20515;-70
2022/11/14 05:56:29;;;;;;;15.82;5.90;;;5.70;99.90;;;;;;4929423;28;20034;-70
2022/11/14 05:58:55;;;;;;;14.70;5.15;;;5.80;99.90;;;;;;4936379;29;20032;-69
2022/11/14 06:01:24;;;;;;;12.50;6.15;;;5.80;99.90;;;;;;4958789;28;20045;-70
2022/11/14 06:03:50;;;;;;;10.38;6.10;;;5.80;99.90;;;;;;4945389;28;20055;-70
2022/11/14 06:06:19;;;;;;;14.93;6.85;;;5.80;99.90;;;;;;4934032;29;20118;-70
2022/11/14 06:08:45;;;;;;;10.32;6.53;;;5.80;99.90;;;;;;4940812;29;20032;-70
2022/11/14 06:11:14;;;;;;;11.70;6.03;;;5.80;99.90;;;;;;4958214;28;20035;-70
2022/11/14 06:13:41;;;;;;;11.57;6.05;;;5.90;99.90;;;;;;4939576;28;20059;-70
2022/11/14 06:16:14;;;;;;;9.15;5.88;;;5.90;99.90;;;;;;4955544;28;20160;-70
2022/11/14 06:18:40;;;;;;;11.18;4.18;;;5.80;99.90;;;;;;4937418;29;20554;-71
2022/11/14 06:21:13;;;;;;;10.13;6.18;;;6.00;99.90;;;;;;4944060;28;20055;-71
2022/11/14 06:23:40;;;;;;;11.50;6.00;;;6.00;99.90;;;;;;4963828;28;20035;-71
2022/11/14 06:26:14;;;;;;;19.90;5.43;;;5.90;99.90;;;;;;4958558;28;20027;-70
2022/11/14 06:28:39;;;;;;;13.02;5.97;;;5.90;99.90;;;;;;4962395;28;20042;-71
2022/11/14 06:31:06;;;;;;;8.80;6.13;;;5.80;99.90;;;;;;4940597;29;20031;-70
2022/11/14 06:33:36;;;;;;;16.30;6.13;;;5.90;99.90;;;;;;4932615;29;20032;-70
2022/11/14 06:36:05;;;;;;;10.20;5.68;;;5.90;99.90;;;;;;4951108;28;20363;-68
2022/11/14 06:38:33;;;;;;;11.40;6.57;;;6.00;99.90;;;;;;4956119;28;20023;-70
2022/11/14 06:41:03;;;;;;;8.60;4.50;;;5.90;99.90;;;;;;4943007;29;20032;-69
2022/11/14 06:43:31;;;;;;;10.02;4.43;;;5.80;99.90;;;;;;4943108;28;20039;-69
2022/11/14 06:45:56;;;;;;;15.70;5.45;;;5.90;99.90;;;;;;4942790;29;20035;-69
2022/11/14 06:48:22;;;;;;;12.15;6.80;;;5.80;99.90;;;;;;4920002;28;20069;-69
2022/11/14 06:50:56;;;;;;;16.92;5.45;;;5.90;99.90;;;;;;4941589;29;20118;-69
2022/11/14 06:53:23;;;;;;;10.77;5.97;;;5.80;99.90;;;;;;4947765;28;20073;-69
2022/11/14 06:55:59;;;;;;;11.52;4.45;;;5.90;99.90;;;;;;4946661;28;20087;-70
2022/11/14 06:58:31;;;;;;;18.73;5.90;;;5.90;99.90;;;;;;4932867;28;20094;-69
2022/11/14 07:01:02;;;;;;;9.65;4.47;;;5.80;99.90;;;;;;4941223;29;20039;-70
2022/11/14 07:03:28;;;;;;;9.85;4.97;;;5.90;99.90;;;;;;4939782;28;20042;-70
2022/11/14 07:05:58;;;;;;;8.88;6.22;;;5.90;99.90;;;;;;4946828;29;20031;-69
2022/11/14 07:08:23;;;;;;;14.85;5.03;;;5.90;99.90;;;;;;4937229;28;20042;-69
2022/11/14 07:10:49;;;;;;;10.88;5.10;;;5.90;99.90;;;;;;4936832;29;20110;-69
2022/11/14 07:13:15;;;;;;;9.45;4.82;;;5.90;99.90;;;;;;4938062;29;20051;-69
2022/11/14 07:15:52;;;;;;;7.28;4.35;;;5.80;99.90;;;;;;4935082;29;20116;-69
2022/11/14 07:18:18;;;;;;;10.50;5.47;;;5.90;99.90;;;;;;4939662;29;20083;-68
2022/11/14 07:20:45;;;;;;;8.90;5.00;;;5.90;99.90;;;;;;4936634;29;20031;-70
2022/11/14 07:23:10;;;;;;;9.13;5.50;;;5.90;99.90;;;;;;4940629;28;20070;-70
2022/11/14 07:25:36;;;;;;;7.72;4.75;;;5.80;99.90;;;;;;4937659;28;20063;-69
2022/11/14 07:28:02;;;;;;;9.05;4.07;;;5.80;99.90;;;;;;4937438;29;20102;-70
2022/11/14 07:30:28;;;;;;;8.90;4.90;;;5.90;99.90;;;;;;4945162;28;20083;-69
2022/11/14 07:32:57;;;;;;;11.23;5.47;;;6.00;99.90;;;;;;4938428;29;20036;-69
2022/11/14 07:35:24;;;;;;;8.07;4.95;;;6.00;99.90;;;;;;4942715;29;20141;-69
2022/11/14 07:37:51;;;;;;;14.90;5.22;;;6.10;99.90;;;;;;4952500;28;20498;-70
2022/11/14 07:40:17;;;;;;;14.70;6.45;;;6.10;99.90;;;;;;4958050;28;20065;-69
2022/11/14 07:42:43;;;;;;;10.30;5.40;;;6.10;99.90;;;;;;4960846;28;20035;-71
2022/11/14 07:45:10;;;;;;;11.73;5.43;;;6.20;99.90;;;;;;4961646;28;20382;-70
2022/11/14 07:47:36;;;;;;;10.38;4.72;;;6.20;99.90;;;;;;4962798;28;20031;-69
2022/11/14 07:50:02;;;;;;;9.25;4.68;;;6.20;99.90;;;;;;4960666;28;20038;-70
2022/11/14 07:52:30;;;;;;;12.20;4.90;;;6.30;99.90;;;;;;4962617;28;20955;-72
2022/11/14 07:54:56;;;;;;;16.92;7.57;;;6.40;99.90;;;;;;4940914;28;20039;-70
2022/11/14 07:57:21;;;;;;;12.25;5.82;;;6.50;99.90;;;;;;4954215;28;20023;-70
2022/11/14 08:00:01;;;;;;;11.65;5.40;;;6.50;99.90;;;;;;4936339;29;20095;-71
2022/11/14 08:02:27;;;;;;;7.35;4.28;;;6.50;99.90;;;;;;4940244;29;20027;-70
2022/11/14 08:04:52;;;;;;;15.13;6.82;;;6.30;99.90;;;;;;4935389;29;20031;-70
2022/11/14 08:07:18;;;;;;;7.32;4.63;;;6.10;99.90;;;;;;4934896;29;20045;-71
2022/11/14 08:09:43;;;;;;;12.10;6.35;;;6.00;99.90;;;;;;4938183;29;20055;-69
2022/11/14 08:12:09;;;;;;;12.70;5.75;;;6.00;99.90;;;;;;4933217;29;20631;-70
2022/11/14 08:14:35;;;;;;;13.23;5.68;;;6.00;99.90;;;;;;4935053;28;20071;-70
2022/11/14 08:17:00;;;;;;;14.70;5.75;;;6.10;99.90;;;;;;4942884;29;20040;-71
2022/11/14 08:19:26;;;;;;;9.45;4.82;;;6.10;99.90;;;;;;4941572;29;20087;-71
2022/11/14 08:21:52;;;;;;;11.23;6.63;;;6.10;99.90;;;;;;4960700;28;20133;-71
2022/11/14 08:24:17;;;;;;;20.90;5.88;;;6.10;99.90;;;;;;4946434;29;20035;-70
2022/11/14 08:26:43;;;;;;;11.30;5.60;;;6.20;99.90;;;;;;4941510;28;20118;-71
2022/11/14 08:29:09;;;;;;;12.25;5.70;;;6.30;99.90;;;;;;4942942;29;20031;-70
2022/11/14 08:31:34;;;;;;;13.93;7.10;;;6.30;99.90;;;;;;4947194;29;20045;-70
2022/11/14 08:34:00;;;;;;;17.10;6.57;;;6.40;99.90;;;;;;4944326;29;20403;-71
2022/11/14 08:36:26;;;;;;;19.20;5.47;;;6.60;99.90;;;;;;4936856;29;20031;-69
2022/11/14 08:38:52;;;;;;;11.52;6.28;;;6.70;99.90;;;;;;4932934;29;20043;-68
2022/11/14 08:41:17;;;;;;;12.57;5.30;;;6.80;99.90;;;;;;4939014;28;20380;-70
2022/11/14 08:43:43;;;;;;;16.85;6.78;;;7.00;99.90;;;;;;4934829;29;20042;-69
2022/11/14 08:46:09;;;;;;;11.23;5.85;;;6.90;99.90;;;;;;4933018;28;20054;-70
2022/11/14 08:48:35;;;;;;;8.75;5.88;;;7.00;99.90;;;;;;4937755;28;20414;-69
2022/11/14 08:51:04;;;;;;;10.70;4.45;;;7.20;99.90;;;;;;4933942;29;20118;-70
2022/11/14 08:53:30;;;;;;;8.82;5.13;;;7.20;99.90;;;;;;4939342;29;20065;-71
2022/11/14 08:55:55;;;;;;;12.98;5.28;;;7.20;99.90;;;;;;4937906;28;20443;-70
2022/11/14 08:58:21;;;;;;;9.57;5.15;;;7.10;99.90;;;;;;4929134;28;20314;-70
2022/11/14 09:00:47;;;;;;;10.90;4.93;;;7.20;99.90;;;;;;4945102;28;20491;-69
2022/11/14 09:03:14;;;;;;;14.15;6.75;;;7.30;99.90;;;;;;4930985;28;20114;-70
2022/11/14 09:05:41;;;;;;;20.08;5.47;;;7.20;99.90;;;;;;4929809;29;20043;-69
2022/11/14 09:08:07;;;;;;;16.35;6.63;;;7.30;99.90;;;;;;4933755;29;20038;-70
2022/11/14 09:10:33;;;;;;;14.20;5.78;;;7.30;99.90;;;;;;4943476;28;20038;-68
2022/11/14 09:13:01;;;;;;;13.13;5.95;;;7.20;99.90;;;;;;4940790;29;20470;-68
2022/11/14 09:15:28;;;;;;;17.15;6.55;;;7.30;99.90;;;;;;4938386;29;20070;-68
2022/11/14 09:17:57;;;;;;;10.73;5.82;;;7.40;99.90;;;;;;4934005;29;20043;-67
2022/11/14 09:20:24;;;;;;;17.55;4.80;;;7.40;99.90;;;;;;4944213;28;20031;-69
2022/11/14 09:22:55;;;;;;;13.73;5.57;;;7.40;99.90;;;;;;4959718;28;20046;-69
2022/11/14 09:25:21;;;;;;;16.02;6.43;;;7.50;99.90;;;;;;4945318;28;20062;-68
2022/11/14 09:27:47;;;;;;;24.70;7.65;;;7.60;99.90;;;;;;4944276;28;20495;-68
2022/11/14 09:30:14;;;;;;;12.38;5.15;;;7.60;99.90;;;;;;4948649;29;20705;-69
2022/11/14 09:32:39;;;;;;;12.90;5.63;;;7.70;99.90;;;;;;4957172;28;20569;-69
2022/11/14 09:35:05;;;;;;;12.15;5.22;;;7.60;99.90;;;;;;4967351;28;20039;-68
2022/11/14 09:37:31;;;;;;;9.60;5.53;;;7.70;99.90;;;;;;4947983;29;20619;-69
2022/11/14 09:39:56;;;;;;;10.70;4.72;;;7.70;99.90;;;;;;4942535;28;20086;-68
2022/11/14 09:43:12;;;;;;;10.27;5.10;;;7.70;99.90;;;;;;4940811;29;20034;-68
2022/11/14 09:45:47;;;;;;;13.60;4.65;;;7.80;99.90;;;;;;4936929;29;20040;-68
2022/11/14 09:48:26;;;;;;;11.20;5.90;;;7.90;99.90;;;;;;4934996;29;20047;-68
2022/11/14 09:51:07;;;;;;;16.63;5.70;;;8.00;99.90;;;;;;4940818;29;20028;-69
2022/11/14 09:53:57;;;;;;;;;;;8.00;99.90;;;;;;4959892;28;20074;-68
2022/11/14 09:56:25;;;;;;;9.23;5.82;;;8.00;99.90;;;;;;4944858;29;19914;-68
2022/11/14 09:58:54;;;;;;;15.13;6.35;;;8.00;99.90;;;;;;4957951;28;20415;-67
2022/11/14 10:01:56;;;;;;;13.95;6.13;;;8.00;99.90;;;;;;4958571;28;20031;-73
2022/11/14 10:04:55;;;;;;;10.07;5.10;;;8.10;99.90;;;;;;4943670;29;20039;-69
2022/11/14 10:07:46;;;;;;;14.75;5.97;;;8.10;99.90;;;;;;4945061;29;20062;-67
2022/11/14 10:10:29;;;;;;;14.18;5.18;;;8.20;99.90;;;;;;4940618;29;20031;-68
2022/11/14 10:13:14;;;;;;;11.85;4.50;;;8.20;99.90;;;;;;4942358;29;20036;-69
2022/11/14 10:16:14;;;;;;;13.38;6.18;;;8.20;99.90;;;;;;4936204;29;20050;-68
2022/11/14 10:19:12;;;;;;;10.60;4.78;;;8.30;99.90;;;;;;4943548;29;20114;-68
2022/11/14 10:22:05;;;;;;;12.20;5.32;;;8.40;99.90;;;;;;4944713;29;20109;-68
2022/11/14 10:24:55;;;;;;;13.20;4.95;;;8.60;99.90;;;;;;4947008;29;20027;-67
2022/11/14 10:27:33;;;;;;;14.95;5.78;;;8.80;99.90;;;;;;4961747;28;20032;-68
2022/11/14 10:30:14;;;;;;;12.60;4.28;;;8.90;99.90;;;;;;4947134;28;20538;-68
2022/11/14 10:33:17;;;;;;;16.02;5.93;;;8.90;99.90;;;;;;4939119;29;20039;-69
2022/11/14 10:36:19;;;;;;;15.73;6.35;;;9.00;99.90;;;;;;4948349;29;20062;-68
2022/11/14 10:38:53;;;;;;;;;;;9.30;99.90;;;;;;4942800;28;20570;-69
2022/11/14 10:41:21;;;;;;;10.93;4.55;;;9.30;99.90;;;;;;4935071;29;20017;-69
2022/11/14 10:43:49;;;;;;;12.02;4.80;;;9.50;99.90;;;;;;4935134;29;20038;-68
2022/11/14 10:46:36;;;;;;;9.00;5.00;;;9.80;99.90;;;;;;4950793;28;20027;-69
2022/11/14 10:49:20;;;;;;;10.48;5.22;;;10.20;99.90;;;;;;4946693;29;20023;-68
2022/11/14 10:51:55;;;;;;;20.67;5.63;;;10.90;99.90;;;;;;4961995;28;20031;-68
2022/11/14 10:54:38;;;;;;;19.60;5.55;;;11.50;99.90;;;;;;4962112;28;20038;-68
2022/11/14 10:57:17;;;;;;;19.55;5.22;;;12.20;99.90;;;;;;4960830;28;20505;-68
2022/11/14 10:59:43;;;;;;;8.95;4.25;;;12.60;99.90;;;;;;4959533;28;20035;-67
2022/11/14 11:02:09;;;;;;;6.55;3.15;;;12.80;99.90;;;;;;4961669;28;20078;-68
2022/11/14 11:04:38;;;;;;;10.80;2.53;;;13.10;99.90;;;;;;4969402;28;20058;-66
2022/11/14 11:07:06;;;;;;;10.98;2.70;;;12.60;99.90;;;;;;4953910;29;20121;-69
2022/11/14 11:12:23;;;;;;;4.28;1.98;;;12.00;99.90;;;;;;4947953;29;20110;-69
2022/11/14 11:15:22;;;;;;;7.22;2.85;;;11.40;99.90;;;;;;4953039;28;20501;-71
2022/11/14 11:18:03;;;;;;;11.75;2.95;;;11.10;99.90;;;;;;4946753;28;20039;-68
2022/11/14 11:20:34;;;;;;;28.02;4.00;;;11.00;99.90;;;;;;4953609;28;20392;-71
2022/11/14 11:23:02;;;;;;;25.75;7.07;;;10.90;99.90;;;;;;4957679;28;20050;-67
2022/11/14 11:25:31;;;;;;;8.65;3.53;;;11.00;99.90;;;;;;4949983;29;20055;-68
2022/11/14 11:28:10;;;;;;;5.95;2.50;;;10.90;99.90;;;;;;4946268;28;20403;-70
2022/11/14 11:30:37;;;;;;;3.70;2.03;;;10.60;99.90;;;;;;4950515;29;20039;-70
2022/11/14 11:33:28;;;;;;;4.35;2.42;;;10.60;99.90;;;;;;4946004;28;20027;-69
2022/11/14 11:35:58;;;;;;;;;;;10.40;99.90;;;;;;4946431;28;20051;-69
2022/11/14 11:38:27;;;;;;;5.20;2.35;;;10.40;99.90;;;;;;4931789;29;19919;-68
2022/11/14 11:41:11;;;;;;;6.30;2.92;;;10.30;99.90;;;;;;4952438;29;20027;-68
2022/11/14 11:43:51;;;;;;;4.78;1.92;;;10.30;99.90;;;;;;4956758;28;20032;-70
2022/11/14 11:46:47;;;;;;;6.35;3.08;;;10.40;99.90;;;;;;4949007;28;20139;-69
2022/11/14 11:49:47;;;;;;;12.10;3.20;;;10.40;99.90;;;;;;4948848;28;20130;-69
2022/11/14 11:52:34;;;;;;;15.82;4.45;;;10.50;99.90;;;;;;4952963;28;20047;-68
2022/11/14 11:55:26;;;;;;;20.92;5.68;;;10.40;99.90;;;;;;4951714;29;20074;-69
2022/11/14 11:58:08;;;;;;;15.00;3.85;;;10.50;99.90;;;;;;4945799;28;20039;-69
2022/11/14 12:00:34;;;;;;;8.95;2.95;;;10.40;99.90;;;;;;4948562;28;20430;-67
2022/11/14 12:03:00;;;;;;;7.55;2.85;;;10.40;99.90;;;;;;4948945;28;20051;-68
2022/11/14 12:05:47;;;;;;;14.15;3.65;;;10.30;99.90;;;;;;4942144;29;20114;-70
2022/11/14 12:08:43;;;;;;;7.18;2.17;;;10.40;99.90;;;;;;4933845;29;20127;-68
2022/11/14 12:11:16;;;;;;;9.75;3.70;;;10.40;99.90;;;;;;4938149;29;20036;-67
2022/11/14 12:14:00;;;;;;;8.48;3.42;;;10.40;99.90;;;;;;4963588;28;20047;-66
2022/11/14 12:16:53;;;;;;;5.88;2.47;;;10.40;99.90;;;;;;4960387;28;20031;-67
2022/11/14 12:19:46;;;;;;;4.45;2.58;;;10.20;99.90;;;;;;4948846;28;20071;-67
2022/11/14 12:22:29;;;;;;;20.92;3.78;;;10.10;99.90;;;;;;4946367;29;20822;-68
2022/11/14 12:25:21;;;;;;;4.22;2.65;;;10.10;99.90;;;;;;4949485;29;20065;-68
2022/11/14 12:28:36;;;;;;;18.02;3.03;;;10.00;99.90;;;;;;4942182;28;20106;-68
2022/11/14 12:31:09;;;;;;;8.52;4.25;;;10.00;99.90;;;;;;4944608;29;20027;-69
2022/11/14 12:33:42;;;;;;;7.82;3.17;;;10.10;99.90;;;;;;4962942;28;20035;-69
2022/11/14 12:36:11;;;;;;;10.52;3.42;;;10.20;99.90;;;;;;4944304;29;20370;-68
2022/11/14 12:38:49;;;;;;;5.00;3.15;;;10.20;99.90;;;;;;4963945;28;20110;-69
2022/11/14 12:41:35;;;;;;;8.15;3.58;;;10.30;99.90;;;;;;4946866;29;20387;-69
2022/11/14 12:44:34;;;;;;;5.22;3.10;;;10.40;99.90;;;;;;4948754;28;20102;-70
2022/11/14 12:47:05;;;;;;;4.55;2.42;;;10.40;99.90;;;;;;4945266;28;20031;-69
2022/11/14 12:49:46;;;;;;;;;;;10.40;99.90;;;;;;4949842;29;20050;-69
2022/11/14 12:52:42;;;;;;;15.13;3.10;;;10.40;99.90;;;;;;4952134;29;19925;-68
2022/11/14 12:55:28;;;;;;;14.35;3.28;;;10.40;99.90;;;;;;4946966;29;20138;-69
2022/11/14 12:58:09;;;;;;;5.35;2.30;;;10.30;99.90;;;;;;4934902;29;20042;-70
2022/11/14 13:01:23;;;;;;;8.65;3.65;;;10.30;99.90;;;;;;4941069;29;20466;-70
2022/11/14 13:04:23;;;;;;;5.07;3.05;;;10.20;99.90;;;;;;4934374;29;20126;-70
2022/11/14 13:07:26;;;;;;;8.75;3.13;;;10.00;99.90;;;;;;4945014;28;20047;-69
2022/11/14 13:10:35;;;;;;;10.02;3.17;;;9.90;99.90;;;;;;4946557;28;20071;-70
2022/11/14 13:22:12;;;;;;;8.30;3.83;;;9.60;99.90;;;;;;4944506;29;20039;-68
2022/11/14 13:25:02;;;;;;;11.20;3.93;;;9.50;99.90;;;;;;4948700;29;20039;-70
2022/11/14 13:27:31;;;;;;;11.23;3.27;;;9.50;99.90;;;;;;4947820;29;20043;-70
2022/11/14 13:30:00;;;;;;;11.50;3.33;;;9.60;99.90;;;;;;4960487;28;20413;-69
2022/11/14 13:32:41;;;;;;;8.48;3.60;;;9.60;99.90;;;;;;4946876;29;20031;-70